createdAt,value
2023-03-29T00:00:38.778Z,3.17
2023-03-29T00:01:42.569Z,3.63
2023-03-29T00:02:48.887Z,4.05
2023-03-29T00:03:52.244Z,2.50
2023-03-29T00:04:55.167Z,2.58
2023-03-29T00:06:03.347Z,3.00
2023-03-29T00:07:06.227Z,2.40
2023-03-29T00:08:09.424Z,4.25
2023-03-29T00:09:12.252Z,2.78
2023-03-29T00:10:14.978Z,3.25
2023-03-29T00:11:18.618Z,2.95
2023-03-29T00:12:21.421Z,2.50
2023-03-29T00:13:24.192Z,3.05
2023-03-29T00:14:29.124Z,3.72
2023-03-29T00:15:32.068Z,2.72
2023-03-29T00:16:34.919Z,2.90
2023-03-29T00:17:37.879Z,2.88
2023-03-29T00:18:40.713Z,2.55
2023-03-29T00:19:45.500Z,3.13
2023-03-29T00:20:55.751Z,2.13
2023-03-29T00:21:58.664Z,2.95
2023-03-29T00:23:01.412Z,2.60
2023-03-29T00:24:04.333Z,2.35
2023-03-29T00:25:07.530Z,2.80
2023-03-29T00:26:10.308Z,3.40
2023-03-29T00:27:12.999Z,2.83
2023-03-29T00:28:15.839Z,2.22
2023-03-29T00:29:18.841Z,3.33
2023-03-29T00:30:21.688Z,2.78
2023-03-29T00:31:24.688Z,2.58
2023-03-29T00:32:27.611Z,4.47
2023-03-29T00:33:30.634Z,2.40
2023-03-29T00:34:36.343Z,2.08
2023-03-29T00:35:39.876Z,2.13
2023-03-29T00:36:43.440Z,3.47
2023-03-29T00:37:51.151Z,2.58
2023-03-29T00:38:56.727Z,3.65
2023-03-29T00:40:00.828Z,2.35
2023-03-29T00:41:05.114Z,2.25
2023-03-29T00:42:15.033Z,2.35
2023-03-29T00:43:17.885Z,3.38
2023-03-29T00:44:54.359Z,2.33
2023-03-29T00:45:57.312Z,2.78
2023-03-29T00:47:00.292Z,2.72
2023-03-29T00:48:11.389Z,2.10
2023-03-29T00:49:14.470Z,2.15
2023-03-29T00:50:22.574Z,2.05
2023-03-29T00:51:29.277Z,2.28
2023-03-29T00:52:33.574Z,3.10
2023-03-29T00:53:42.853Z,2.13
2023-03-29T00:54:46.931Z,2.30
2023-03-29T00:55:54.416Z,1.67
2023-03-29T00:56:57.443Z,2.55
2023-03-29T00:58:01.194Z,2.63
2023-03-29T00:59:16.758Z,1.77
2023-03-29T01:00:23.477Z,1.73
2023-03-29T01:01:34.379Z,2.83
2023-03-29T01:02:40.452Z,2.10
2023-03-29T01:03:49.689Z,2.13
2023-03-29T01:05:20.394Z,3.42
2023-03-29T01:06:29.241Z,2.78
2023-03-29T01:07:53.957Z,1.30
2023-03-29T01:09:01.521Z,2.17
2023-03-29T01:10:15.875Z,2.45
2023-03-29T01:11:29.382Z,2.08
2023-03-29T01:12:38.890Z,2.47
2023-03-29T01:13:53.196Z,3.35
2023-03-29T01:15:12.640Z,1.35
2023-03-29T01:16:20.445Z,2.35
2023-03-29T01:17:25.724Z,2.97
2023-03-29T01:18:31.656Z,2.10
2023-03-29T01:19:42.506Z,2.20
2023-03-29T01:21:05.427Z,1.52
2023-03-29T01:22:15.024Z,2.65
2023-03-29T01:23:43.797Z,1.85
2023-03-29T01:25:20.489Z,1.48
2023-03-29T01:26:35.111Z,1.77
2023-03-29T01:27:52.496Z,1.45
2023-03-29T01:29:23.344Z,1.38
2023-03-29T01:30:32.022Z,1.10
2023-03-29T01:31:39.740Z,1.20
2023-03-29T01:33:05.056Z,1.83
2023-03-29T01:34:18.593Z,1.83
2023-03-29T01:36:51.559Z,2.35
2023-03-29T01:38:07.531Z,1.30
2023-03-29T01:39:10.438Z,1.20
2023-03-29T01:40:13.335Z,1.98
2023-03-29T01:41:16.808Z,2.08
2023-03-29T01:42:43.014Z,1.77
2023-03-29T01:43:52.523Z,3.42
2023-03-29T01:45:03.047Z,1.00
2023-03-29T01:46:36.887Z,2.10
2023-03-29T01:47:59.490Z,1.00
2023-03-29T01:49:11.475Z,1.98
2023-03-29T01:50:18.052Z,1.40
2023-03-29T01:51:31.693Z,1.50
2023-03-29T01:52:59.623Z,1.00
2023-03-29T01:54:14.215Z,1.67
2023-03-29T01:55:26.067Z,1.63
2023-03-29T01:56:30.281Z,1.13
2023-03-29T01:57:34.770Z,1.65
2023-03-29T01:58:41.916Z,1.20
2023-03-29T01:59:47.682Z,2.25
2023-03-29T02:00:54.439Z,1.80
2023-03-29T02:02:00.959Z,1.38
2023-03-29T02:03:31.175Z,1.75
2023-03-29T02:04:40.164Z,1.92
2023-03-29T02:05:45.178Z,1.23
2023-03-29T02:06:50.526Z,1.55
2023-03-29T02:08:17.754Z,1.27
2023-03-29T02:09:21.208Z,0.90
2023-03-29T02:10:45.151Z,1.20
2023-03-29T02:11:48.656Z,1.20
2023-03-29T02:12:51.510Z,1.95
2023-03-29T02:13:54.304Z,1.30
2023-03-29T02:15:01.367Z,1.65
2023-03-29T02:16:12.628Z,1.10
2023-03-29T02:17:18.486Z,1.27
2023-03-29T02:18:22.009Z,1.02
2023-03-29T02:19:26.259Z,0.95
2023-03-29T02:20:39.287Z,1.13
2023-03-29T02:21:56.807Z,1.60
2023-03-29T02:23:02.576Z,2.50
2023-03-29T02:24:09.140Z,1.30
2023-03-29T02:25:13.284Z,2.17
2023-03-29T02:26:17.872Z,2.25
2023-03-29T02:27:21.612Z,1.33
2023-03-29T02:28:26.396Z,1.35
2023-03-29T02:29:29.325Z,2.15
2023-03-29T02:30:53.743Z,1.80
2023-03-29T02:32:08.998Z,1.30
2023-03-29T02:33:22.289Z,1.58
2023-03-29T02:34:30.082Z,1.88
2023-03-29T02:35:55.016Z,1.20
2023-03-29T02:37:10.904Z,1.30
2023-03-29T02:38:14.916Z,1.95
2023-03-29T02:39:19.555Z,2.90
2023-03-29T02:40:24.854Z,1.33
2023-03-29T02:41:28.964Z,1.58
2023-03-29T02:42:31.948Z,1.05
2023-03-29T02:43:36.353Z,2.08
2023-03-29T02:44:42.154Z,0.90
2023-03-29T02:45:46.272Z,2.65
2023-03-29T02:46:52.186Z,1.10
2023-03-29T02:48:03.826Z,2.30
2023-03-29T02:49:06.908Z,0.90
2023-03-29T02:50:12.289Z,1.50
2023-03-29T02:51:20.259Z,0.90
2023-03-29T02:52:27.850Z,1.10
2023-03-29T02:53:39.472Z,1.15
2023-03-29T02:54:43.563Z,2.28
2023-03-29T02:56:08.118Z,2.15
2023-03-29T02:57:11.285Z,1.20
2023-03-29T02:58:36.870Z,1.45
2023-03-29T02:59:41.167Z,0.77
2023-03-29T03:00:48.957Z,1.33
2023-03-29T03:01:55.403Z,1.08
2023-03-29T03:04:04.907Z,1.10
2023-03-29T03:05:08.548Z,1.35
2023-03-29T03:06:31.557Z,2.05
2023-03-29T03:07:34.308Z,1.77
2023-03-29T03:08:37.755Z,1.45
2023-03-29T03:09:40.598Z,1.30
2023-03-29T03:11:05.031Z,1.67
2023-03-29T03:12:07.905Z,1.60
2023-03-29T03:13:11.602Z,1.50
2023-03-29T03:14:14.501Z,0.90
2023-03-29T03:15:17.286Z,1.00
2023-03-29T03:16:20.544Z,1.30
2023-03-29T03:17:23.429Z,1.80
2023-03-29T03:18:26.499Z,0.80
2023-03-29T03:19:29.929Z,1.23
2023-03-29T03:20:33.645Z,0.98
2023-03-29T03:21:38.066Z,1.10
2023-03-29T03:22:42.974Z,1.15
2023-03-29T03:23:46.448Z,0.60
2023-03-29T03:24:49.574Z,1.40
2023-03-29T03:25:53.910Z,1.15
2023-03-29T03:26:57.810Z,1.50
2023-03-29T03:28:01.354Z,2.50
2023-03-29T03:29:04.243Z,1.02
2023-03-29T03:30:44.044Z,1.35
2023-03-29T03:31:58.929Z,1.42
2023-03-29T03:33:48.460Z,1.25
2023-03-29T03:35:17.281Z,0.73
2023-03-29T03:36:20.022Z,0.95
2023-03-29T03:37:23.863Z,2.17
2023-03-29T03:38:26.700Z,1.05
2023-03-29T03:39:33.593Z,1.08
2023-03-29T03:41:00.606Z,1.50
2023-03-29T03:42:08.277Z,1.35
2023-03-29T03:43:16.192Z,0.80
2023-03-29T03:44:20.183Z,1.85
2023-03-29T03:45:29.490Z,0.88
2023-03-29T03:46:42.703Z,2.03
2023-03-29T03:47:46.412Z,0.65
2023-03-29T03:48:59.736Z,1.15
2023-03-29T03:50:09.347Z,1.35
2023-03-29T03:51:12.665Z,1.63
2023-03-29T03:52:16.019Z,1.65
2023-03-29T03:53:19.439Z,1.13
2023-03-29T03:54:57.267Z,1.60
2023-03-29T03:56:18.245Z,0.90
2023-03-29T03:57:45.104Z,1.35
2023-03-29T03:58:51.051Z,0.93
2023-03-29T03:59:54.931Z,1.17
2023-03-29T04:01:04.527Z,1.63
2023-03-29T04:02:20.878Z,0.90
2023-03-29T04:03:24.422Z,1.00
2023-03-29T04:04:27.459Z,1.08
2023-03-29T04:05:50.936Z,1.10
2023-03-29T04:07:02.794Z,1.33
2023-03-29T04:08:22.776Z,1.02
2023-03-29T04:09:45.373Z,2.25
2023-03-29T04:11:11.044Z,1.45
2023-03-29T04:12:38.342Z,1.30
2023-03-29T04:13:42.701Z,1.42
2023-03-29T04:15:05.493Z,0.70
2023-03-29T04:16:08.963Z,2.25
2023-03-29T04:17:11.859Z,1.13
2023-03-29T04:18:25.714Z,1.45
2023-03-29T04:19:32.481Z,1.25
2023-03-29T04:20:35.478Z,0.88
2023-03-29T04:21:39.048Z,1.55
2023-03-29T04:22:42.091Z,0.90
2023-03-29T04:23:46.860Z,0.90
2023-03-29T04:24:50.177Z,1.50
2023-03-29T04:26:12.480Z,1.00
2023-03-29T04:27:24.152Z,0.90
2023-03-29T04:28:27.319Z,1.10
2023-03-29T04:30:07.376Z,1.13
2023-03-29T04:32:55.893Z,1.00
2023-03-29T04:34:00.482Z,0.93
2023-03-29T04:35:05.141Z,0.82
2023-03-29T04:36:09.641Z,0.98
2023-03-29T04:37:12.443Z,1.35
2023-03-29T04:38:36.559Z,1.05
2023-03-29T04:39:57.555Z,1.67
2023-03-29T04:41:01.745Z,0.85
2023-03-29T04:42:24.880Z,1.30
2023-03-29T04:43:27.732Z,1.65
2023-03-29T04:44:38.061Z,1.65
2023-03-29T04:45:43.846Z,1.90
2023-03-29T04:47:01.308Z,1.98
2023-03-29T04:48:19.339Z,1.40
2023-03-29T04:50:27.428Z,1.20
2023-03-29T04:51:30.321Z,1.40
2023-03-29T04:52:35.410Z,1.25
2023-03-29T04:53:40.029Z,1.10
2023-03-29T04:54:42.871Z,1.30
2023-03-29T04:56:14.900Z,1.52
2023-03-29T04:57:36.518Z,1.08
2023-03-29T04:58:54.443Z,1.83
2023-03-29T04:59:57.972Z,0.95
2023-03-29T05:01:19.363Z,1.05
2023-03-29T05:02:32.611Z,1.20
2023-03-29T05:03:35.899Z,1.52
2023-03-29T05:04:52.534Z,1.70
2023-03-29T05:05:55.661Z,1.30
2023-03-29T05:06:58.509Z,2.70
2023-03-29T05:08:01.311Z,2.78
2023-03-29T05:09:13.030Z,1.77
2023-03-29T05:10:27.494Z,1.95
2023-03-29T05:11:30.302Z,2.20
2023-03-29T05:12:33.532Z,1.63
2023-03-29T05:13:36.937Z,1.08
2023-03-29T05:14:40.001Z,1.35
2023-03-29T05:15:43.346Z,1.90
2023-03-29T05:16:46.466Z,2.00
2023-03-29T05:17:49.800Z,1.42
2023-03-29T05:18:53.114Z,1.90
2023-03-29T05:19:56.568Z,1.85
2023-03-29T05:21:01.555Z,2.08
2023-03-29T05:22:04.846Z,2.38
2023-03-29T05:23:08.680Z,1.50
2023-03-29T05:24:30.084Z,1.70
2023-03-29T05:25:35.388Z,2.00
2023-03-29T05:26:38.760Z,1.98
2023-03-29T05:27:41.794Z,2.35
2023-03-29T05:28:46.281Z,1.38
2023-03-29T05:29:49.327Z,1.70
2023-03-29T05:31:18.980Z,3.35
2023-03-29T05:32:26.062Z,1.70
2023-03-29T05:33:29.084Z,2.03
2023-03-29T05:34:32.212Z,1.30
2023-03-29T05:35:37.799Z,1.63
2023-03-29T05:36:43.847Z,2.28
2023-03-29T05:37:47.591Z,1.58
2023-03-29T05:38:50.463Z,2.45
2023-03-29T05:39:55.246Z,2.28
2023-03-29T05:41:11.888Z,1.67
2023-03-29T05:42:54.014Z,2.35
2023-03-29T05:43:58.175Z,2.47
2023-03-29T05:45:02.129Z,3.28
2023-03-29T05:46:06.417Z,1.70
2023-03-29T05:47:10.308Z,2.63
2023-03-29T05:48:13.773Z,1.77
2023-03-29T05:49:18.958Z,2.15
2023-03-29T05:50:37.136Z,1.77
2023-03-29T05:51:42.306Z,3.28
2023-03-29T05:52:46.326Z,2.90
2023-03-29T05:53:49.231Z,2.80
2023-03-29T05:54:52.076Z,2.40
2023-03-29T05:55:56.465Z,3.33
2023-03-29T05:57:02.160Z,2.60
2023-03-29T05:58:07.699Z,3.78
2023-03-29T05:59:11.801Z,3.35
2023-03-29T06:00:25.952Z,3.03
2023-03-29T06:02:06.052Z,2.90
2023-03-29T06:03:24.000Z,4.30
2023-03-29T06:04:27.303Z,2.20
2023-03-29T06:06:04.060Z,3.00
2023-03-29T06:07:08.795Z,3.20
2023-03-29T06:08:12.779Z,2.85
2023-03-29T06:09:30.416Z,3.15
2023-03-29T06:10:37.727Z,2.58
2023-03-29T06:12:03.043Z,2.35
2023-03-29T06:13:29.731Z,2.40
2023-03-29T06:14:33.057Z,2.88
2023-03-29T06:16:11.253Z,3.50
2023-03-29T06:17:14.207Z,2.53
2023-03-29T06:18:17.051Z,3.97
2023-03-29T06:19:19.968Z,2.38
2023-03-29T06:20:23.038Z,2.53
2023-03-29T06:21:31.829Z,2.13
2023-03-29T06:22:35.640Z,2.45
2023-03-29T06:23:38.578Z,2.08
2023-03-29T06:24:41.772Z,2.83
2023-03-29T06:25:51.800Z,2.85
2023-03-29T06:26:54.945Z,2.70
2023-03-29T06:27:58.387Z,3.60
2023-03-29T06:29:01.829Z,2.65
2023-03-29T06:30:06.613Z,2.97
2023-03-29T06:31:10.398Z,2.70
2023-03-29T06:32:15.526Z,3.90
2023-03-29T06:33:25.171Z,3.25
2023-03-29T06:34:37.245Z,2.35
2023-03-29T06:36:00.061Z,2.53
2023-03-29T06:37:06.283Z,3.88
2023-03-29T06:38:09.280Z,4.25
2023-03-29T06:39:41.361Z,3.03
2023-03-29T06:41:11.420Z,3.78
2023-03-29T06:42:34.656Z,3.10
2023-03-29T06:44:04.338Z,3.20
2023-03-29T06:45:11.788Z,3.30
2023-03-29T06:46:16.538Z,2.72
2023-03-29T06:47:35.362Z,2.75
2023-03-29T06:48:39.413Z,3.58
2023-03-29T06:49:42.431Z,4.72
2023-03-29T06:51:07.977Z,3.60
2023-03-29T06:52:12.963Z,2.63
2023-03-29T06:53:17.303Z,4.40
2023-03-29T06:54:29.117Z,3.03
2023-03-29T06:55:38.803Z,3.40
2023-03-29T06:57:01.140Z,3.33
2023-03-29T06:58:08.701Z,3.10
2023-03-29T06:59:12.119Z,2.70
2023-03-29T07:00:39.927Z,2.60
2023-03-29T07:01:50.553Z,3.22
2023-03-29T07:03:14.233Z,3.70
2023-03-29T07:06:01.539Z,2.90
2023-03-29T07:07:08.028Z,2.90
2023-03-29T07:08:14.241Z,3.13
2023-03-29T07:09:31.081Z,2.92
2023-03-29T07:11:03.996Z,2.63
2023-03-29T07:12:39.564Z,3.72
2023-03-29T07:13:43.826Z,3.38
2023-03-29T07:15:53.465Z,3.42
2023-03-29T07:17:17.104Z,3.80
2023-03-29T07:18:20.610Z,2.78
2023-03-29T07:19:25.613Z,3.40
2023-03-29T07:20:52.772Z,2.45
2023-03-29T07:21:58.756Z,2.40
2023-03-29T07:23:33.077Z,3.55
2023-03-29T07:24:36.563Z,3.55
2023-03-29T07:25:41.537Z,2.25
2023-03-29T07:27:06.700Z,2.90
2023-03-29T07:28:31.297Z,2.60
2023-03-29T07:29:55.330Z,2.70
2023-03-29T07:31:11.385Z,2.67
2023-03-29T07:32:24.418Z,3.38
2023-03-29T07:33:37.882Z,3.28
2023-03-29T07:34:45.968Z,3.03
2023-03-29T07:35:56.545Z,2.70
2023-03-29T07:37:00.059Z,2.47
2023-03-29T07:38:04.280Z,2.40
2023-03-29T07:39:09.575Z,3.05
2023-03-29T07:40:32.217Z,4.22
2023-03-29T07:41:58.500Z,2.38
2023-03-29T07:43:03.412Z,2.42
2023-03-29T07:44:09.827Z,3.00
2023-03-29T07:45:26.900Z,3.03
2023-03-29T07:46:45.427Z,1.73
2023-03-29T07:47:49.547Z,2.63
2023-03-29T07:48:52.961Z,1.90
2023-03-29T07:49:56.733Z,3.00
2023-03-29T07:51:05.358Z,2.85
2023-03-29T07:52:18.976Z,3.28
2023-03-29T07:53:25.971Z,2.20
2023-03-29T07:54:35.322Z,3.22
2023-03-29T07:56:22.212Z,2.50
2023-03-29T07:58:02.610Z,2.90
2023-03-29T07:59:26.576Z,2.05
2023-03-29T08:00:42.099Z,3.53
2023-03-29T08:03:49.430Z,2.15
2023-03-29T08:04:55.437Z,2.47
2023-03-29T08:06:05.334Z,2.35
2023-03-29T08:07:09.518Z,3.00
2023-03-29T08:08:31.182Z,2.92
2023-03-29T08:09:57.862Z,1.65
2023-03-29T08:11:14.407Z,1.77
2023-03-29T08:12:31.769Z,2.83
2023-03-29T08:13:43.654Z,2.40
2023-03-29T08:15:16.748Z,3.20
2023-03-29T08:16:19.957Z,1.70
2023-03-29T08:17:30.087Z,1.73
2023-03-29T08:18:34.957Z,2.03
2023-03-29T08:19:38.757Z,1.88
2023-03-29T08:21:06.045Z,1.73
2023-03-29T08:22:11.358Z,1.60
2023-03-29T08:23:43.422Z,3.05
2023-03-29T08:24:54.751Z,2.30
2023-03-29T08:26:02.884Z,2.40
2023-03-29T08:27:15.455Z,1.73
2023-03-29T08:28:20.267Z,3.63
2023-03-29T08:29:31.795Z,2.05
2023-03-29T08:30:39.351Z,1.80
2023-03-29T08:32:03.451Z,1.70
2023-03-29T08:33:07.374Z,1.83
2023-03-29T08:34:10.548Z,2.58
2023-03-29T08:35:52.190Z,2.05
2023-03-29T08:37:00.337Z,2.35
2023-03-29T08:38:12.916Z,2.63
2023-03-29T08:39:16.886Z,1.65
2023-03-29T08:40:49.760Z,1.73
2023-03-29T08:42:27.051Z,1.63
2023-03-29T08:44:14.104Z,1.60
2023-03-29T08:45:53.145Z,2.30
2023-03-29T08:46:59.944Z,1.40
2023-03-29T08:48:31.881Z,1.90
2023-03-29T08:49:40.344Z,2.50
2023-03-29T08:50:50.735Z,1.70
2023-03-29T08:51:58.973Z,1.65
2023-03-29T08:53:07.306Z,3.30
2023-03-29T08:54:40.691Z,2.10
2023-03-29T08:55:49.476Z,1.25
2023-03-29T08:57:27.539Z,1.70
2023-03-29T08:58:39.839Z,1.67
2023-03-29T08:59:46.369Z,1.48
2023-03-29T09:01:00.136Z,1.70
2023-03-29T09:02:18.231Z,2.05
2023-03-29T09:03:30.578Z,1.83
2023-03-29T09:04:42.862Z,1.83
2023-03-29T09:06:08.359Z,1.48
2023-03-29T09:07:12.700Z,2.05
2023-03-29T09:08:23.115Z,1.35
2023-03-29T09:09:34.626Z,1.85
2023-03-29T09:11:08.821Z,1.55
2023-03-29T09:12:20.305Z,1.70
2023-03-29T09:13:40.148Z,2.38
2023-03-29T09:14:49.507Z,2.42
2023-03-29T09:16:00.976Z,2.08
2023-03-29T09:18:02.055Z,1.55
2023-03-29T09:19:35.550Z,2.72
2023-03-29T09:20:53.962Z,1.92
2023-03-29T09:22:30.257Z,1.60
2023-03-29T09:23:47.947Z,1.98
2023-03-29T09:25:26.291Z,2.35
2023-03-29T09:27:15.612Z,3.03
2023-03-29T09:28:49.869Z,2.33
2023-03-29T09:29:59.099Z,2.60
2023-03-29T09:31:30.264Z,1.88
2023-03-29T09:32:53.721Z,2.92
2023-03-29T09:34:14.593Z,1.90
2023-03-29T09:35:41.622Z,2.60
2023-03-29T09:36:55.483Z,2.10
2023-03-29T09:37:59.656Z,1.48
2023-03-29T09:39:04.631Z,1.90
2023-03-29T09:40:16.966Z,2.00
2023-03-29T09:41:45.093Z,1.90
2023-03-29T09:42:51.674Z,2.40
2023-03-29T09:43:58.126Z,1.60
2023-03-29T09:45:09.846Z,1.52
2023-03-29T09:46:31.461Z,1.63
2023-03-29T09:47:49.967Z,2.40
2023-03-29T09:48:55.378Z,2.78
2023-03-29T09:50:16.601Z,2.08
2023-03-29T09:51:30.732Z,1.42
2023-03-29T09:52:34.093Z,1.80
2023-03-29T09:53:48.993Z,2.17
2023-03-29T09:55:18.118Z,1.55
2023-03-29T09:56:41.450Z,1.70
2023-03-29T09:57:47.748Z,1.13
2023-03-29T09:58:51.596Z,1.40
2023-03-29T09:59:56.328Z,2.28
2023-03-29T10:01:02.055Z,1.60
2023-03-29T10:02:09.411Z,1.55
2023-03-29T10:03:24.492Z,2.60
2023-03-29T10:04:39.609Z,2.00
2023-03-29T10:06:06.905Z,1.92
2023-03-29T10:07:18.613Z,2.25
2023-03-29T10:08:39.187Z,1.88
2023-03-29T10:09:46.515Z,1.27
2023-03-29T10:10:54.503Z,2.05
2023-03-29T10:12:02.468Z,2.00
2023-03-29T10:13:10.425Z,2.35
2023-03-29T10:14:19.665Z,2.22
2023-03-29T10:15:29.806Z,2.28
2023-03-29T10:16:38.769Z,2.60
2023-03-29T10:18:07.077Z,1.42
2023-03-29T10:19:20.141Z,2.40
2023-03-29T10:20:25.513Z,2.25
2023-03-29T10:21:29.972Z,2.22
2023-03-29T10:22:38.160Z,2.30
2023-03-29T10:23:41.362Z,2.25
2023-03-29T10:24:49.887Z,2.45
2023-03-29T10:25:53.448Z,1.95
2023-03-29T10:27:03.308Z,1.77
2023-03-29T10:28:16.613Z,3.15
2023-03-29T10:30:26.331Z,2.05
2023-03-29T10:31:36.951Z,1.75
2023-03-29T10:32:41.577Z,1.88
2023-03-29T10:33:50.286Z,1.67
2023-03-29T10:34:54.138Z,2.53
2023-03-29T10:35:58.234Z,1.58
2023-03-29T10:37:02.604Z,2.60
2023-03-29T10:38:10.873Z,1.77
2023-03-29T10:39:16.713Z,2.90
2023-03-29T10:40:32.213Z,1.88
2023-03-29T10:41:36.122Z,2.58
2023-03-29T10:42:51.243Z,1.70
2023-03-29T10:43:54.840Z,1.52
2023-03-29T10:44:59.872Z,2.20
2023-03-29T10:46:09.335Z,2.03
2023-03-29T10:47:17.710Z,2.45
2023-03-29T10:48:28.100Z,2.10
2023-03-29T10:49:31.235Z,1.85
2023-03-29T10:50:38.297Z,1.85
2023-03-29T10:51:45.942Z,1.20
2023-03-29T10:52:50.589Z,2.38
2023-03-29T10:53:57.983Z,2.00
2023-03-29T10:56:23.254Z,2.00
2023-03-29T10:57:51.897Z,3.33
2023-03-29T10:59:14.769Z,1.50
2023-03-29T11:00:36.348Z,1.75
2023-03-29T11:01:49.929Z,2.00
2023-03-29T11:03:22.746Z,1.55
2023-03-29T11:04:45.347Z,1.73
2023-03-29T11:05:57.763Z,1.65
2023-03-29T11:07:22.848Z,1.90
2023-03-29T11:08:40.476Z,2.67
2023-03-29T11:10:10.050Z,1.40
2023-03-29T11:11:24.704Z,1.75
2023-03-29T11:12:50.506Z,1.08
2023-03-29T11:14:13.970Z,2.15
2023-03-29T11:15:40.417Z,1.70
2023-03-29T11:17:12.441Z,2.38
2023-03-29T11:18:18.574Z,1.92
2023-03-29T11:19:47.847Z,1.80
2023-03-29T11:21:12.781Z,2.03
2023-03-29T11:22:36.737Z,2.15
2023-03-29T11:24:09.200Z,2.10
2023-03-29T11:25:31.270Z,2.00
2023-03-29T11:26:54.897Z,2.28
2023-03-29T11:28:13.484Z,1.63
2023-03-29T11:30:01.182Z,2.60
2023-03-29T11:31:16.287Z,2.10
2023-03-29T11:33:11.504Z,1.88
2023-03-29T11:34:33.072Z,2.47
2023-03-29T11:36:07.770Z,2.28
2023-03-29T11:37:23.423Z,1.98
2023-03-29T11:38:44.650Z,2.35
2023-03-29T11:40:15.628Z,1.65
2023-03-29T11:41:34.205Z,1.75
2023-03-29T11:42:41.337Z,1.92
2023-03-29T11:43:47.992Z,1.80
2023-03-29T11:44:55.154Z,2.00
2023-03-29T11:46:04.240Z,2.53
2023-03-29T11:47:14.202Z,1.80
2023-03-29T11:48:23.780Z,2.20
2023-03-29T11:49:43.510Z,1.77
2023-03-29T11:51:01.585Z,1.73
2023-03-29T11:52:24.699Z,2.30
2023-03-29T11:53:44.531Z,1.80
2023-03-29T11:55:03.706Z,2.95
2023-03-29T11:56:14.633Z,2.13
2023-03-29T11:57:29.717Z,1.67
2023-03-29T11:58:39.087Z,2.70
2023-03-29T12:00:12.699Z,2.55
2023-03-29T12:01:29.000Z,2.38
2023-03-29T12:03:09.975Z,2.60
2023-03-29T12:04:26.471Z,2.05
2023-03-29T12:05:36.229Z,2.67
2023-03-29T12:06:43.845Z,1.60
2023-03-29T12:07:53.916Z,1.67
2023-03-29T12:09:01.585Z,2.58
2023-03-29T12:10:19.938Z,2.17
2023-03-29T12:12:34.107Z,2.63
2023-03-29T12:14:13.513Z,1.58
2023-03-29T12:15:27.120Z,2.00
2023-03-29T12:16:45.261Z,2.60
2023-03-29T12:18:13.274Z,2.25
2023-03-29T12:20:28.484Z,1.60
2023-03-29T12:21:36.872Z,1.98
2023-03-29T12:22:41.138Z,1.95
2023-03-29T12:23:44.917Z,1.80
2023-03-29T12:24:50.709Z,1.92
2023-03-29T12:26:38.240Z,1.30
2023-03-29T12:27:54.135Z,1.65
2023-03-29T12:29:29.170Z,1.65
2023-03-29T12:30:52.750Z,2.67
2023-03-29T12:32:11.287Z,1.92
2023-03-29T12:33:47.821Z,2.85
2023-03-29T12:35:15.257Z,2.15
2023-03-29T12:36:44.608Z,1.10
2023-03-29T12:38:14.372Z,1.63
2023-03-29T12:39:37.334Z,1.63
2023-03-29T12:41:02.212Z,1.65
2023-03-29T12:43:07.698Z,1.58
2023-03-29T12:44:59.009Z,1.30
2023-03-29T12:46:11.627Z,1.30
2023-03-29T12:47:21.701Z,2.08
2023-03-29T12:48:28.871Z,2.50
2023-03-29T12:49:39.328Z,2.35
2023-03-29T12:50:52.026Z,1.52
2023-03-29T12:51:58.227Z,2.72
2023-03-29T12:53:19.322Z,2.22
2023-03-29T12:54:28.181Z,3.15
2023-03-29T12:55:43.234Z,2.15
2023-03-29T12:56:52.761Z,2.58
2023-03-29T12:58:07.507Z,1.58
2023-03-29T12:59:34.395Z,2.53
2023-03-29T13:00:37.475Z,1.92
2023-03-29T13:01:43.805Z,2.20
2023-03-29T13:03:20.249Z,2.10
2023-03-29T13:04:57.115Z,2.20
2023-03-29T13:06:10.045Z,3.40
2023-03-29T13:07:47.734Z,2.70
2023-03-29T13:08:59.987Z,3.28
2023-03-29T13:10:11.292Z,4.38
2023-03-29T13:11:34.986Z,2.85
2023-03-29T13:12:46.185Z,2.70
2023-03-29T13:13:51.001Z,2.75
2023-03-29T13:15:27.587Z,3.13
2023-03-29T13:16:34.889Z,4.05
2023-03-29T13:17:40.641Z,2.10
2023-03-29T13:18:57.421Z,3.08
2023-03-29T13:20:30.939Z,2.92
2023-03-29T13:21:59.013Z,3.25
2023-03-29T13:23:30.819Z,3.38
2023-03-29T13:24:48.675Z,3.95
2023-03-29T13:26:20.018Z,3.42
2023-03-29T13:27:25.315Z,3.63
2023-03-29T13:28:58.505Z,2.60
2023-03-29T13:30:34.686Z,3.28
2023-03-29T13:31:40.532Z,3.20
2023-03-29T13:33:06.040Z,2.75
2023-03-29T13:34:36.147Z,2.78
2023-03-29T13:36:09.838Z,3.95
2023-03-29T13:37:31.184Z,2.58
2023-03-29T13:38:49.321Z,3.10
2023-03-29T13:39:58.546Z,2.60
2023-03-29T13:41:07.800Z,3.75
2023-03-29T13:42:39.424Z,3.47
2023-03-29T13:43:52.290Z,4.32
2023-03-29T13:45:13.505Z,3.38
2023-03-29T13:46:24.439Z,3.30
2023-03-29T13:47:33.717Z,2.75
2023-03-29T13:48:39.290Z,3.08
2023-03-29T13:49:45.762Z,3.30
2023-03-29T13:51:16.702Z,2.63
2023-03-29T13:52:36.320Z,2.78
2023-03-29T13:53:46.090Z,2.70
2023-03-29T13:55:21.821Z,3.03
2023-03-29T13:56:39.024Z,3.08
2023-03-29T13:57:51.969Z,3.08
2023-03-29T13:59:04.086Z,3.47
2023-03-29T14:00:39.204Z,2.85
2023-03-29T14:01:58.434Z,2.72
2023-03-29T14:03:07.828Z,3.10
2023-03-29T14:04:18.332Z,2.95
2023-03-29T14:05:37.784Z,3.08
2023-03-29T14:06:50.045Z,3.95
2023-03-29T14:07:55.047Z,3.08
2023-03-29T14:09:02.720Z,2.70
2023-03-29T14:10:06.848Z,4.78
2023-03-29T14:11:24.659Z,2.92
2023-03-29T14:12:39.558Z,4.07
2023-03-29T14:13:44.097Z,2.40
2023-03-29T14:15:08.179Z,3.80
2023-03-29T14:16:38.494Z,3.00
2023-03-29T14:18:01.815Z,3.17
2023-03-29T14:19:17.692Z,2.28
2023-03-29T14:20:21.341Z,2.83
2023-03-29T14:21:45.483Z,4.05
2023-03-29T14:22:48.528Z,2.50
2023-03-29T14:23:57.662Z,4.20
2023-03-29T14:25:12.409Z,3.28
2023-03-29T14:26:23.356Z,2.70
2023-03-29T14:27:32.013Z,3.22
2023-03-29T14:28:34.895Z,3.50
2023-03-29T14:29:38.239Z,2.47
2023-03-29T14:30:49.289Z,3.28
2023-03-29T14:31:52.317Z,3.83
2023-03-29T14:32:57.073Z,3.65
2023-03-29T14:34:02.852Z,3.13
2023-03-29T14:35:06.377Z,3.63
2023-03-29T14:36:17.051Z,4.72
2023-03-29T14:37:28.956Z,5.53
2023-03-29T14:38:32.935Z,2.88
2023-03-29T14:39:36.458Z,2.50
2023-03-29T14:40:39.466Z,5.10
2023-03-29T14:41:53.876Z,5.13
2023-03-29T14:42:57.079Z,3.92
2023-03-29T14:44:00.754Z,2.78
2023-03-29T14:45:08.120Z,4.45
2023-03-29T14:46:14.735Z,4.00
2023-03-29T14:47:29.706Z,2.35
2023-03-29T14:48:33.671Z,3.40
2023-03-29T14:49:37.307Z,3.17
2023-03-29T14:50:41.450Z,3.17
2023-03-29T14:51:46.322Z,5.22
2023-03-29T14:52:52.616Z,3.58
2023-03-29T14:53:57.668Z,2.78
2023-03-29T14:55:02.439Z,2.70
2023-03-29T14:56:09.766Z,3.60
2023-03-29T14:57:18.784Z,3.38
2023-03-29T14:58:23.620Z,3.20
2023-03-29T14:59:40.095Z,3.03
2023-03-29T15:00:43.673Z,3.97
2023-03-29T15:01:47.387Z,2.70
2023-03-29T15:03:01.393Z,4.20
2023-03-29T15:04:11.308Z,3.78
2023-03-29T15:05:47.785Z,3.30
2023-03-29T15:06:52.701Z,3.28
2023-03-29T15:07:56.539Z,3.08
2023-03-29T15:09:06.508Z,4.03
2023-03-29T15:10:19.548Z,3.10
2023-03-29T15:11:27.625Z,3.95
2023-03-29T15:12:32.023Z,4.38
2023-03-29T15:13:35.234Z,3.35
2023-03-29T15:14:40.659Z,3.72
2023-03-29T15:15:43.999Z,3.30
2023-03-29T15:16:48.740Z,3.25
2023-03-29T15:17:54.650Z,4.63
2023-03-29T15:19:03.438Z,4.72
2023-03-29T15:20:16.010Z,3.13
2023-03-29T15:21:22.383Z,3.92
2023-03-29T15:22:32.534Z,3.08
2023-03-29T15:23:56.324Z,2.67
2023-03-29T15:25:00.093Z,3.45
2023-03-29T15:26:14.531Z,2.90
2023-03-29T15:27:21.516Z,3.10
2023-03-29T15:28:33.029Z,4.05
2023-03-29T15:29:44.340Z,3.92
2023-03-29T15:30:57.272Z,2.45
2023-03-29T15:32:09.528Z,3.75
2023-03-29T15:33:20.527Z,4.03
2023-03-29T15:34:35.220Z,3.05
2023-03-29T15:35:38.512Z,2.88
2023-03-29T15:36:46.877Z,4.18
2023-03-29T15:37:54.109Z,3.80
2023-03-29T15:38:59.575Z,3.25
2023-03-29T15:40:09.991Z,2.90
2023-03-29T15:41:17.239Z,4.55
2023-03-29T15:42:21.399Z,3.35
2023-03-29T15:43:24.930Z,2.97
2023-03-29T15:44:34.727Z,3.67
2023-03-29T15:45:40.388Z,3.15
2023-03-29T15:46:43.830Z,2.60
2023-03-29T15:47:49.245Z,3.65
2023-03-29T15:48:53.251Z,3.75
2023-03-29T15:49:56.254Z,3.67
2023-03-29T15:51:05.715Z,4.22
2023-03-29T15:52:09.727Z,3.00
2023-03-29T15:53:15.532Z,3.47
2023-03-29T15:54:21.052Z,4.20
2023-03-29T15:55:28.684Z,3.95
2023-03-29T15:56:37.505Z,4.32
2023-03-29T15:57:42.385Z,4.30
2023-03-29T15:58:47.562Z,5.03
2023-03-29T15:59:51.223Z,4.15
2023-03-29T16:01:13.482Z,3.55
2023-03-29T16:02:19.572Z,2.90
2023-03-29T16:03:25.080Z,4.38
2023-03-29T16:04:28.222Z,3.53
2023-03-29T16:05:32.986Z,3.30
2023-03-29T16:06:38.270Z,3.35
2023-03-29T16:07:45.234Z,4.07
2023-03-29T16:08:50.559Z,2.83
2023-03-29T16:09:53.546Z,3.65
2023-03-29T16:10:56.565Z,3.88
2023-03-29T16:12:00.750Z,3.35
2023-03-29T16:13:05.777Z,3.28
2023-03-29T16:14:27.622Z,3.45
2023-03-29T16:15:35.302Z,4.45
2023-03-29T16:16:38.132Z,3.50
2023-03-29T16:17:43.544Z,4.10
2023-03-29T16:18:47.725Z,3.88